Time;durP1;ratioP1;P1;durP2;ratioP2;P2;SDS_P1;SDS_P2;PMS_P1;PMS_P2;Temp;Humidity;BMP_temperature;BMP_pressure;BME280_temperature;BME280_humidity;BME280_pressure;Samples;Min_cycle;Max_cycle;Signal;HPM_P1;HPM_P2
2022/06/25 00:02:04;;;;;;;2.90;2.70;;;;;;;;;;5064214;28;20856;-74
2022/06/25 00:07:17;;;;;;;3.00;2.80;;;;;;;;;;5062544;28;20424;-73
2022/06/25 00:09:45;;;;;;;3.00;2.90;;;;;;;;;;5067083;28;20441;-74
2022/06/25 00:14:56;;;;;;;3.20;3.00;;;;;;;;;;5055652;28;20432;-73
2022/06/25 00:17:23;;;;;;;3.40;3.10;;;;;;;;;;5069368;28;20506;-74
2022/06/25 00:19:50;;;;;;;2.60;2.40;;;;;;;;;;5067088;28;20448;-74
2022/06/25 00:22:19;;;;;;;3.17;2.97;;;;;;;;;;5071302;28;20472;-75
2022/06/25 00:24:46;;;;;;;3.30;3.10;;;;;;;;;;5067122;28;20505;-75
2022/06/25 00:27:13;;;;;;;3.20;3.00;;;;;;;;;;5065596;28;21904;-74
2022/06/25 00:29:40;;;;;;;3.83;3.00;;;;;;;;;;5071164;28;20445;-75
2022/06/25 00:32:09;;;;;;;2.53;2.37;;;;;;;;;;5070133;28;20525;-74
2022/06/25 00:34:36;;;;;;;3.10;2.80;;;;;;;;;;5065310;28;20453;-73
2022/06/25 00:37:03;;;;;;;3.47;2.60;;;;;;;;;;5074590;28;20441;-74
2022/06/25 00:39:31;;;;;;;2.73;2.53;;;;;;;;;;5074246;28;20510;-74
2022/06/25 00:41:59;;;;;;;3.17;2.97;;;;;;;;;;5074217;28;20526;-74
2022/06/25 00:44:26;;;;;;;3.30;2.60;;;;;;;;;;5073685;28;20936;-73
2022/06/25 00:46:53;;;;;;;4.50;2.70;;;;;;;;;;5073734;28;20518;-73
2022/06/25 00:49:20;;;;;;;3.60;3.03;;;;;;;;;;5074190;28;20590;-75
2022/06/25 00:51:49;;;;;;;2.97;2.77;;;;;;;;;;5074151;28;20491;-73
2022/06/25 00:54:18;;;;;;;3.90;3.10;;;;;;;;;;5073803;28;20510;-73
2022/06/25 00:56:49;;;;;;;3.10;2.90;;;;;;;;;;5073972;28;20437;-74
2022/06/25 00:59:16;;;;;;;5.77;2.80;;;;;;;;;;5069957;28;20445;-73
2022/06/25 01:01:43;;;;;;;3.10;2.90;;;;;;;;;;5073777;28;20464;-74
2022/06/25 01:04:10;;;;;;;4.40;3.30;;;;;;;;;;5073951;28;20467;-74
2022/06/25 01:06:37;;;;;;;2.77;2.43;;;;;;;;;;5073579;28;21140;-73
2022/06/25 01:09:04;;;;;;;2.87;2.67;;;;;;;;;;5075064;28;20440;-74
2022/06/25 01:11:31;;;;;;;3.00;2.73;;;;;;;;;;5075785;28;20971;-75
2022/06/25 01:14:00;;;;;;;2.70;2.60;;;;;;;;;;5075774;28;20480;-74
2022/06/25 01:16:27;;;;;;;3.23;2.80;;;;;;;;;;5076387;28;20781;-75
2022/06/25 01:18:54;;;;;;;2.83;2.63;;;;;;;;;;5075735;28;20517;-74
2022/06/25 01:21:21;;;;;;;3.00;2.90;;;;;;;;;;5074691;28;20812;-74
2022/06/25 01:23:50;;;;;;;3.40;3.20;;;;;;;;;;5072973;28;20436;-74
2022/06/25 01:26:17;;;;;;;2.80;2.70;;;;;;;;;;5073525;28;20445;-74
2022/06/25 01:28:45;;;;;;;3.07;2.60;;;;;;;;;;5073279;28;20486;-75
2022/06/25 01:31:12;;;;;;;2.80;2.63;;;;;;;;;;5073607;28;20472;-73
2022/06/25 01:33:39;;;;;;;3.13;2.77;;;;;;;;;;5072875;28;20480;-74
2022/06/25 01:36:06;;;;;;;2.77;2.57;;;;;;;;;;5073369;28;20436;-74
2022/06/25 01:38:33;;;;;;;3.77;2.83;;;;;;;;;;5073325;28;20491;-74
2022/06/25 01:41:01;;;;;;;2.77;2.60;;;;;;;;;;5073505;28;20460;-73
2022/06/25 01:43:28;;;;;;;2.50;2.40;;;;;;;;;;5073606;28;20852;-74
2022/06/25 01:45:55;;;;;;;2.97;2.77;;;;;;;;;;5073265;28;20441;-72
2022/06/25 01:48:22;;;;;;;2.93;2.70;;;;;;;;;;5073425;28;20437;-73
2022/06/25 01:50:49;;;;;;;2.53;2.37;;;;;;;;;;5073382;28;20556;-73
2022/06/25 01:53:17;;;;;;;4.10;2.60;;;;;;;;;;5072992;28;20526;-74
2022/06/25 01:55:44;;;;;;;4.20;2.60;;;;;;;;;;5066594;28;20532;-76
2022/06/25 01:58:12;;;;;;;3.10;2.80;;;;;;;;;;5072557;28;20811;-74
2022/06/25 02:00:39;;;;;;;3.00;2.80;;;;;;;;;;5076916;28;20460;-75
2022/06/25 02:03:07;;;;;;;2.47;2.37;;;;;;;;;;5082241;28;20437;-73
2022/06/25 02:08:19;;;;;;;2.60;2.40;;;;;;;;;;5076295;28;20947;-74
2022/06/25 02:10:47;;;;;;;3.97;3.20;;;;;;;;;;5073527;28;20976;-73
2022/06/25 02:13:15;;;;;;;3.10;2.80;;;;;;;;;;5073661;28;20897;-74
2022/06/25 02:15:42;;;;;;;2.80;2.60;;;;;;;;;;5071799;28;20522;-73
2022/06/25 02:18:10;;;;;;;5.43;2.70;;;;;;;;;;5072739;28;20437;-74
2022/06/25 02:20:37;;;;;;;2.87;2.60;;;;;;;;;;5073560;28;20467;-74
2022/06/25 02:23:04;;;;;;;3.20;3.00;;;;;;;;;;5073091;28;20969;-74
2022/06/25 02:25:31;;;;;;;3.00;2.83;;;;;;;;;;5072474;28;20432;-74
2022/06/25 02:27:58;;;;;;;2.87;2.60;;;;;;;;;;5072487;28;20717;-74
2022/06/25 02:30:27;;;;;;;2.93;2.73;;;;;;;;;;5072822;28;20514;-73
2022/06/25 02:32:54;;;;;;;3.80;2.50;;;;;;;;;;5071356;28;20476;-75
2022/06/25 02:35:21;;;;;;;3.20;3.00;;;;;;;;;;5071653;28;20440;-74
2022/06/25 02:37:48;;;;;;;4.53;2.40;;;;;;;;;;5072006;28;20722;-74
2022/06/25 02:40:15;;;;;;;2.60;2.40;;;;;;;;;;5072097;28;20971;-75
2022/06/25 02:42:42;;;;;;;2.53;2.33;;;;;;;;;;5071446;28;20963;-74
2022/06/25 02:45:10;;;;;;;4.07;2.50;;;;;;;;;;5071727;28;20440;-75
2022/06/25 02:47:39;;;;;;;3.13;3.03;;;;;;;;;;5071824;28;20517;-74
2022/06/25 02:50:07;;;;;;;2.63;2.40;;;;;;;;;;5071381;28;20506;-73
2022/06/25 02:52:34;;;;;;;3.13;2.97;;;;;;;;;;5071564;28;20547;-73
2022/06/25 02:55:01;;;;;;;3.03;2.73;;;;;;;;;;5079356;28;20480;-74
2022/06/25 03:00:14;;;;;;;2.37;2.27;;;;;;;;;;5071891;28;20950;-74
2022/06/25 03:02:42;;;;;;;3.30;2.40;;;;;;;;;;5071608;28;20437;-74
2022/06/25 03:05:10;;;;;;;3.60;2.20;;;;;;;;;;5071432;28;20944;-73
2022/06/25 03:07:37;;;;;;;2.27;2.17;;;;;;;;;;5071162;28;20506;-75
2022/06/25 03:10:04;;;;;;;3.97;2.93;;;;;;;;;;5070671;28;20506;-74
2022/06/25 03:12:31;;;;;;;3.57;2.53;;;;;;;;;;5071034;28;21017;-74
2022/06/25 03:14:58;;;;;;;2.93;2.73;;;;;;;;;;5071096;28;20541;-75
2022/06/25 03:17:25;;;;;;;2.50;2.40;;;;;;;;;;5071435;28;20489;-75
2022/06/25 03:19:53;;;;;;;2.40;2.17;;;;;;;;;;5071327;28;20449;-74
2022/06/25 03:22:21;;;;;;;2.43;2.30;;;;;;;;;;5071036;28;20461;-74
2022/06/25 03:24:48;;;;;;;3.00;2.80;;;;;;;;;;5070825;28;20875;-74
2022/06/25 03:27:15;;;;;;;3.03;2.67;;;;;;;;;;5070987;28;20506;-74
2022/06/25 03:29:42;;;;;;;4.00;2.80;;;;;;;;;;5071124;28;20449;-74
2022/06/25 03:32:10;;;;;;;4.53;2.57;;;;;;;;;;5070890;28;20533;-74
2022/06/25 03:34:37;;;;;;;2.67;2.50;;;;;;;;;;5070891;28;20522;-75
2022/06/25 03:37:05;;;;;;;5.57;2.50;;;;;;;;;;5071421;28;20851;-75
2022/06/25 03:39:32;;;;;;;4.73;2.90;;;;;;;;;;5071112;28;20486;-73
2022/06/25 03:41:59;;;;;;;2.60;2.40;;;;;;;;;;5070554;28;21038;-74
2022/06/25 03:44:26;;;;;;;2.80;2.60;;;;;;;;;;5070676;28;20517;-75
2022/06/25 03:46:54;;;;;;;2.60;2.40;;;;;;;;;;5070963;28;20506;-74
2022/06/25 03:49:21;;;;;;;2.67;2.47;;;;;;;;;;5074525;28;20892;-74
2022/06/25 03:51:48;;;;;;;2.60;2.10;;;;;;;;;;5074897;28;20573;-75
2022/06/25 03:54:16;;;;;;;2.70;2.60;;;;;;;;;;5075070;28;20527;-74
2022/06/25 03:56:43;;;;;;;3.40;2.80;;;;;;;;;;5074421;28;20444;-74
2022/06/25 03:59:10;;;;;;;2.37;2.27;;;;;;;;;;5074981;28;20432;-75
2022/06/25 04:01:38;;;;;;;2.53;2.33;;;;;;;;;;5074869;28;20988;-74
2022/06/25 04:04:05;;;;;;;2.80;2.60;;;;;;;;;;5069134;28;20995;-73
2022/06/25 04:06:32;;;;;;;2.57;2.47;;;;;;;;;;5072380;28;20445;-74
2022/06/25 04:08:59;;;;;;;2.70;2.00;;;;;;;;;;5072855;28;20498;-74
2022/06/25 04:11:27;;;;;;;2.70;2.50;;;;;;;;;;5074304;28;20460;-74
2022/06/25 04:13:54;;;;;;;2.67;2.57;;;;;;;;;;5074282;28;20479;-73
2022/06/25 04:16:21;;;;;;;2.70;2.60;;;;;;;;;;5074412;28;20445;-74
2022/06/25 04:18:48;;;;;;;3.23;2.80;;;;;;;;;;5072389;28;20446;-74
2022/06/25 04:21:15;;;;;;;2.77;2.20;;;;;;;;;;5073656;28;20465;-74
2022/06/25 04:23:43;;;;;;;3.10;2.90;;;;;;;;;;5073832;28;20440;-74
2022/06/25 04:26:10;;;;;;;6.00;2.50;;;;;;;;;;5074260;28;20474;-74
2022/06/25 04:31:23;;;;;;;2.83;2.50;;;;;;;;;;5073968;28;20521;-74
2022/06/25 04:33:50;;;;;;;2.90;2.17;;;;;;;;;;5074071;28;20468;-74
2022/06/25 04:36:17;;;;;;;2.50;2.40;;;;;;;;;;5073724;28;20448;-75
2022/06/25 04:38:44;;;;;;;2.60;2.40;;;;;;;;;;5074164;28;20449;-73
2022/06/25 04:41:11;;;;;;;2.60;2.40;;;;;;;;;;5074118;28;20513;-74
2022/06/25 04:43:39;;;;;;;2.70;2.60;;;;;;;;;;5073722;28;20437;-74
2022/06/25 04:46:07;;;;;;;6.73;2.47;;;;;;;;;;5073883;28;20498;-73
2022/06/25 04:48:34;;;;;;;3.57;2.60;;;;;;;;;;5073513;28;20449;-74
2022/06/25 04:51:01;;;;;;;2.10;2.00;;;;;;;;;;5074198;28;20893;-75
2022/06/25 04:53:28;;;;;;;2.50;2.30;;;;;;;;;;5073252;28;20444;-74
2022/06/25 04:55:55;;;;;;;4.80;2.67;;;;;;;;;;5073488;28;20912;-74
2022/06/25 04:58:22;;;;;;;2.20;2.10;;;;;;;;;;5073227;28;20452;-74
2022/06/25 05:00:50;;;;;;;2.60;2.40;;;;;;;;;;5072512;28;20460;-74
2022/06/25 05:03:18;;;;;;;2.17;1.97;;;;;;;;;;5072879;28;20444;-73
2022/06/25 05:05:45;;;;;;;3.20;2.40;;;;;;;;;;5073706;28;20535;-73
2022/06/25 05:08:12;;;;;;;2.20;2.10;;;;;;;;;;5073496;28;20932;-74
2022/06/25 05:10:39;;;;;;;2.27;2.17;;;;;;;;;;5073279;28;20460;-74
2022/06/25 05:13:15;;;;;;;2.40;2.20;;;;;;;;;;5073286;28;20453;-73
2022/06/25 05:15:43;;;;;;;2.70;2.33;;;;;;;;;;5073137;28;20480;-74
2022/06/25 05:18:12;;;;;;;2.40;2.20;;;;;;;;;;5073621;28;20436;-74
2022/06/25 05:20:39;;;;;;;2.70;2.50;;;;;;;;;;5073413;28;20464;-73
2022/06/25 05:23:07;;;;;;;2.30;2.20;;;;;;;;;;5073169;28;20441;-74
2022/06/25 05:25:34;;;;;;;1.93;1.83;;;;;;;;;;5073192;28;20444;-73
2022/06/25 05:28:01;;;;;;;2.03;1.93;;;;;;;;;;5072909;28;20441;-73
2022/06/25 05:30:28;;;;;;;2.40;2.20;;;;;;;;;;5072985;28;20473;-74
2022/06/25 05:32:55;;;;;;;1.80;1.80;;;;;;;;;;5072549;28;20578;-74
2022/06/25 05:35:24;;;;;;;2.57;1.97;;;;;;;;;;5072718;28;21003;-74
2022/06/25 05:37:51;;;;;;;1.93;1.80;;;;;;;;;;5072864;28;20436;-74
2022/06/25 05:40:18;;;;;;;1.90;1.80;;;;;;;;;;5072369;28;20855;-73
2022/06/25 05:42:45;;;;;;;2.53;2.40;;;;;;;;;;5072025;28;20440;-75
2022/06/25 05:45:12;;;;;;;2.20;1.97;;;;;;;;;;5072694;28;20941;-73
2022/06/25 05:47:39;;;;;;;4.67;1.90;;;;;;;;;;5072496;28;20513;-74
2022/06/25 05:50:07;;;;;;;1.60;1.50;;;;;;;;;;5072159;28;20844;-74
2022/06/25 05:52:35;;;;;;;1.90;1.80;;;;;;;;;;5072240;28;20903;-74
2022/06/25 05:55:02;;;;;;;3.97;1.70;;;;;;;;;;5072704;28;20481;-74
2022/06/25 05:57:29;;;;;;;2.63;1.80;;;;;;;;;;5072086;28;20441;-75
2022/06/25 05:59:56;;;;;;;3.13;1.90;;;;;;;;;;5065913;28;20446;-74
2022/06/25 06:02:26;;;;;;;1.67;1.57;;;;;;;;;;5072175;28;20590;-73
2022/06/25 06:04:53;;;;;;;1.57;1.47;;;;;;;;;;5072173;28;20829;-76
2022/06/25 06:07:20;;;;;;;1.90;1.80;;;;;;;;;;5073979;28;20449;-76
2022/06/25 06:09:48;;;;;;;2.07;1.87;;;;;;;;;;5072476;28;20970;-74
2022/06/25 06:12:15;;;;;;;2.60;1.83;;;;;;;;;;5072482;28;20804;-74
2022/06/25 06:14:42;;;;;;;1.80;1.70;;;;;;;;;;5072818;28;20476;-76
2022/06/25 06:17:09;;;;;;;1.37;1.37;;;;;;;;;;5072886;28;20437;-75
2022/06/25 06:19:36;;;;;;;2.33;2.10;;;;;;;;;;5071874;28;20986;-74
2022/06/25 06:22:03;;;;;;;8.23;2.30;;;;;;;;;;5071649;28;20468;-75
2022/06/25 06:24:30;;;;;;;2.50;1.70;;;;;;;;;;5071364;28;20502;-74
2022/06/25 06:27:00;;;;;;;2.83;2.07;;;;;;;;;;5072243;28;20665;-74
2022/06/25 06:29:27;;;;;;;2.87;2.40;;;;;;;;;;5071723;28;20483;-73
2022/06/25 06:31:54;;;;;;;2.10;1.90;;;;;;;;;;5071653;28;20469;-74
2022/06/25 06:34:21;;;;;;;2.37;2.17;;;;;;;;;;5071456;28;20472;-74
2022/06/25 06:36:48;;;;;;;2.00;1.80;;;;;;;;;;5072001;28;20441;-75
2022/06/25 06:39:15;;;;;;;2.30;2.10;;;;;;;;;;5071411;28;20494;-74
2022/06/25 06:41:42;;;;;;;1.80;1.70;;;;;;;;;;5071381;28;20530;-74
2022/06/25 06:44:10;;;;;;;1.70;1.60;;;;;;;;;;5071119;28;20444;-74
2022/06/25 06:46:37;;;;;;;1.67;1.57;;;;;;;;;;5074577;28;20448;-74
2022/06/25 06:49:04;;;;;;;2.17;2.00;;;;;;;;;;5073414;28;20433;-73
2022/06/25 06:51:31;;;;;;;2.43;2.33;;;;;;;;;;5070996;28;20464;-75
2022/06/25 06:53:58;;;;;;;1.73;1.63;;;;;;;;;;5071304;28;20783;-75
2022/06/25 06:56:25;;;;;;;1.97;1.87;;;;;;;;;;5071244;28;20520;-75
2022/06/25 06:58:53;;;;;;;4.87;2.03;;;;;;;;;;5070964;28;20436;-75
2022/06/25 07:01:21;;;;;;;1.90;1.80;;;;;;;;;;5070726;28;20461;-74
2022/06/25 07:03:48;;;;;;;1.80;1.70;;;;;;;;;;5070723;28;20444;-74
2022/06/25 07:06:15;;;;;;;1.90;1.80;;;;;;;;;;5071088;28;20969;-75
2022/06/25 07:08:42;;;;;;;2.93;2.13;;;;;;;;;;5063153;28;20441;-74
2022/06/25 07:13:50;;;;;;;4.93;4.63;;;;;;;;;;5050669;28;20438;-75
2022/06/25 07:16:17;;;;;;;1.83;1.77;;;;;;;;;;5050695;28;20473;-74
2022/06/25 07:18:46;;;;;;;2.10;1.60;;;;;;;;;;5050622;28;20445;-75
2022/06/25 07:21:13;;;;;;;4.73;2.30;;;;;;;;;;5050572;28;20969;-75
2022/06/25 07:23:40;;;;;;;2.00;1.80;;;;;;;;;;5067936;28;21001;-74
2022/06/25 07:26:07;;;;;;;3.10;2.20;;;;;;;;;;5075223;28;20482;-75
2022/06/25 07:28:34;;;;;;;2.47;2.27;;;;;;;;;;5074958;28;20469;-74
2022/06/25 07:31:01;;;;;;;2.33;2.00;;;;;;;;;;5074390;28;20968;-74
2022/06/25 07:33:29;;;;;;;2.27;2.17;;;;;;;;;;5067663;28;20506;-75
2022/06/25 07:35:58;;;;;;;1.80;1.70;;;;;;;;;;5081708;28;20483;-73
2022/06/25 07:38:25;;;;;;;1.73;1.63;;;;;;;;;;5083491;28;20540;-75
2022/06/25 07:40:52;;;;;;;2.50;1.80;;;;;;;;;;5075190;28;20457;-75
2022/06/25 07:43:19;;;;;;;3.70;2.10;;;;;;;;;;5074872;28;20440;-74
2022/06/25 07:45:46;;;;;;;2.43;2.23;;;;;;;;;;5075052;28;20501;-75
2022/06/25 07:48:13;;;;;;;2.70;2.00;;;;;;;;;;5074984;28;20831;-74
2022/06/25 07:53:26;;;;;;;2.03;1.70;;;;;;;;;;5074301;28;20448;-74
2022/06/25 07:55:54;;;;;;;2.97;2.77;;;;;;;;;;5074696;28;20841;-74
2022/06/25 07:58:23;;;;;;;3.70;2.03;;;;;;;;;;5074362;28;20468;-74
2022/06/25 08:00:50;;;;;;;2.43;1.87;;;;;;;;;;5074756;28;20464;-74
2022/06/25 08:03:18;;;;;;;2.23;2.07;;;;;;;;;;5074353;28;20637;-74
2022/06/25 08:05:46;;;;;;;5.60;2.23;;;;;;;;;;5074449;28;20543;-74
2022/06/25 08:08:13;;;;;;;2.23;1.90;;;;;;;;;;5070264;28;20452;-74
2022/06/25 08:10:41;;;;;;;2.20;2.10;;;;;;;;;;5054276;28;20515;-74
2022/06/25 08:13:08;;;;;;;4.83;1.93;;;;;;;;;;5054534;28;20453;-74
2022/06/25 08:15:36;;;;;;;2.63;2.27;;;;;;;;;;5054451;28;20481;-75
2022/06/25 08:18:03;;;;;;;2.13;1.90;;;;;;;;;;5062353;28;20456;-75
2022/06/25 08:20:30;;;;;;;2.30;2.10;;;;;;;;;;5073804;28;20959;-75
2022/06/25 08:22:57;;;;;;;2.40;1.90;;;;;;;;;;5073432;28;20449;-74
2022/06/25 08:25:24;;;;;;;2.40;2.00;;;;;;;;;;5073837;28;20444;-75
2022/06/25 08:27:53;;;;;;;2.20;2.10;;;;;;;;;;5074058;28;20440;-75
2022/06/25 08:30:20;;;;;;;2.23;2.13;;;;;;;;;;5067047;28;20440;-74
2022/06/25 08:32:48;;;;;;;2.27;2.17;;;;;;;;;;5069538;28;20456;-74
2022/06/25 08:35:15;;;;;;;3.90;2.87;;;;;;;;;;5068511;28;20541;-74
2022/06/25 08:37:45;;;;;;;3.13;2.10;;;;;;;;;;5073322;28;20444;-75
2022/06/25 08:40:12;;;;;;;2.23;1.97;;;;;;;;;;5073862;28;20514;-74
2022/06/25 08:42:39;;;;;;;2.33;2.10;;;;;;;;;;5073354;28;20527;-74
2022/06/25 08:45:08;;;;;;;2.37;2.07;;;;;;;;;;5073489;28;20932;-75
2022/06/25 08:47:35;;;;;;;2.13;2.00;;;;;;;;;;5073605;28;20464;-75
2022/06/25 08:50:04;;;;;;;1.80;1.70;;;;;;;;;;5073827;28;20440;-74
2022/06/25 08:52:32;;;;;;;2.43;2.03;;;;;;;;;;5073059;28;20478;-75
2022/06/25 08:54:59;;;;;;;3.50;2.60;;;;;;;;;;5073607;28;20477;-74
2022/06/25 08:57:26;;;;;;;2.37;2.27;;;;;;;;;;5073613;28;20444;-75
2022/06/25 08:59:53;;;;;;;2.43;2.10;;;;;;;;;;5073565;28;20440;-75
2022/06/25 09:02:21;;;;;;;1.90;1.80;;;;;;;;;;5073260;28;20514;-75
2022/06/25 09:04:48;;;;;;;2.70;1.90;;;;;;;;;;5073767;28;20833;-74
2022/06/25 09:07:17;;;;;;;2.13;1.93;;;;;;;;;;5073376;28;21146;-73
2022/06/25 09:09:46;;;;;;;1.90;1.80;;;;;;;;;;5073046;28;20947;-74
2022/06/25 09:12:14;;;;;;;2.80;2.10;;;;;;;;;;5073205;28;20468;-75
2022/06/25 09:14:42;;;;;;;2.30;2.10;;;;;;;;;;5073140;28;20441;-74
2022/06/25 09:17:12;;;;;;;6.53;6.03;;;;;;;;;;5073402;28;20445;-74
2022/06/25 09:19:41;;;;;;;2.70;2.07;;;;;;;;;;5070217;28;20459;-74
2022/06/25 09:22:09;;;;;;;2.50;2.20;;;;;;;;;;5072558;28;20465;-75
2022/06/25 09:24:43;;;;;;;4.10;1.97;;;;;;;;;;5073081;28;20445;-74
2022/06/25 09:27:10;;;;;;;3.00;2.43;;;;;;;;;;5073184;28;20471;-74
2022/06/25 09:29:37;;;;;;;3.10;2.13;;;;;;;;;;5073089;28;21005;-75
2022/06/25 09:32:04;;;;;;;4.60;2.20;;;;;;;;;;5072564;28;20468;-75
2022/06/25 09:34:34;;;;;;;3.77;3.50;;;;;;;;;;5072801;28;20932;-74
2022/06/25 09:37:15;;;;;;;3.10;2.40;;;;;;;;;;5072850;28;20571;-75
2022/06/25 09:39:42;;;;;;;2.47;2.27;;;;;;;;;;5072858;28;20494;-75
2022/06/25 09:42:20;;;;;;;5.50;1.90;;;;;;;;;;5072698;28;20473;-75
2022/06/25 09:44:47;;;;;;;1.90;1.80;;;;;;;;;;5071982;28;20436;-74
2022/06/25 09:47:14;;;;;;;3.30;2.10;;;;;;;;;;5076309;28;20447;-74
2022/06/25 09:49:41;;;;;;;3.37;3.10;;;;;;;;;;5079817;28;20471;-74
2022/06/25 09:52:11;;;;;;;2.43;2.23;;;;;;;;;;5078120;28;20460;-74
2022/06/25 09:54:38;;;;;;;1.93;1.83;;;;;;;;;;5078573;28;20440;-74
2022/06/25 09:57:06;;;;;;;1.83;1.73;;;;;;;;;;5077184;28;20973;-75
2022/06/25 09:59:34;;;;;;;1.97;1.80;;;;;;;;;;5077396;28;20506;-75
2022/06/25 10:02:03;;;;;;;2.33;1.77;;;;;;;;;;5072418;28;20841;-76
2022/06/25 10:04:30;;;;;;;2.87;1.73;;;;;;;;;;5072033;28;20460;-76
2022/06/25 10:06:58;;;;;;;1.80;1.70;;;;;;;;;;5071954;28;20441;-75
2022/06/25 10:09:27;;;;;;;2.07;1.97;;;;;;;;;;5058017;28;20437;-76
2022/06/25 10:11:54;;;;;;;3.60;1.90;;;;;;;;;;5052057;28;20892;-75
2022/06/25 10:14:21;;;;;;;1.83;1.73;;;;;;;;;;5051869;28;20472;-75
2022/06/25 10:16:48;;;;;;;2.47;2.00;;;;;;;;;;5052106;28;20481;-74
2022/06/25 10:19:16;;;;;;;1.93;1.43;;;;;;;;;;5051969;28;20442;-75
2022/06/25 10:21:43;;;;;;;1.60;1.50;;;;;;;;;;5051927;28;20889;-75
2022/06/25 10:24:10;;;;;;;1.77;1.67;;;;;;;;;;5054068;28;20826;-75
2022/06/25 10:26:40;;;;;;;1.70;1.70;;;;;;;;;;5063399;28;20446;-75
2022/06/25 10:29:22;;;;;;;3.80;1.87;;;;;;;;;;5069886;28;20436;-75
2022/06/25 10:31:49;;;;;;;2.13;1.97;;;;;;;;;;5071435;28;20468;-75
2022/06/25 10:34:16;;;;;;;3.00;1.80;;;;;;;;;;5071132;28;20444;-75
2022/06/25 10:36:44;;;;;;;1.77;1.67;;;;;;;;;;5071245;28;20485;-76
2022/06/25 10:39:32;;;;;;;1.33;1.30;;;;;;;;;;5062249;28;20441;-76
2022/06/25 10:45:06;;;;;;;2.67;1.60;;;;;;;;;;5051388;28;20393;-75
2022/06/25 10:47:39;;;;;;;2.00;1.80;;;;;;;;;;5051460;28;20498;-75
2022/06/25 10:50:25;;;;;;;2.53;2.00;;;;;;;;;;5051213;28;20846;-74
2022/06/25 10:53:07;;;;;;;1.90;1.80;;;;;;;;;;5051388;28;20528;-75
2022/06/25 10:55:35;;;;;;;2.77;2.13;;;;;;;;;;5051158;28;20480;-74
2022/06/25 10:58:11;;;;;;;2.40;1.97;;;;;;;;;;5062392;28;20452;-74
2022/06/25 11:00:47;;;;;;;2.33;2.23;;;;;;;;;;5061451;28;20856;-74
2022/06/25 11:03:14;;;;;;;2.20;2.00;;;;;;;;;;5066000;28;20854;-75
2022/06/25 11:05:41;;;;;;;4.87;1.80;;;;;;;;;;5059457;28;20440;-74
2022/06/25 11:08:09;;;;;;;1.77;1.67;;;;;;;;;;5067876;28;20441;-75
2022/06/25 11:10:36;;;;;;;2.20;1.90;;;;;;;;;;5071120;28;20509;-75
2022/06/25 11:13:03;;;;;;;1.93;1.83;;;;;;;;;;5070887;28;20432;-74
2022/06/25 11:15:39;;;;;;;4.50;1.90;;;;;;;;;;5071078;28;20522;-75
2022/06/25 11:18:09;;;;;;;1.70;1.60;;;;;;;;;;5071101;28;20681;-75
2022/06/25 11:20:36;;;;;;;1.70;1.60;;;;;;;;;;5070582;28;20991;-74
2022/06/25 11:23:03;;;;;;;1.80;1.70;;;;;;;;;;5070749;28;20444;-76
2022/06/25 11:28:49;;;;;;;2.70;2.20;;;;;;;;;;5034755;28;20554;-75
2022/06/25 11:31:16;;;;;;;1.67;1.57;;;;;;;;;;5071019;28;20467;-75
2022/06/25 11:33:45;;;;;;;2.27;1.80;;;;;;;;;;5071045;28;20495;-74
2022/06/25 11:36:12;;;;;;;2.30;2.10;;;;;;;;;;5070758;28;20472;-75
2022/06/25 11:38:41;;;;;;;1.93;1.83;;;;;;;;;;5072373;28;20436;-75
2022/06/25 11:41:08;;;;;;;1.83;1.70;;;;;;;;;;5070676;28;20511;-75
2022/06/25 11:43:35;;;;;;;2.00;1.90;;;;;;;;;;5070832;28;20881;-73
2022/06/25 11:46:02;;;;;;;1.83;1.73;;;;;;;;;;5070714;28;20535;-74
2022/06/25 11:48:30;;;;;;;1.87;1.77;;;;;;;;;;5071307;28;20546;-75
2022/06/25 11:51:00;;;;;;;2.00;1.80;;;;;;;;;;5070918;28;20465;-75
2022/06/25 11:53:27;;;;;;;2.00;1.90;;;;;;;;;;5070565;28;20441;-74
2022/06/25 11:55:57;;;;;;;1.77;1.67;;;;;;;;;;5070462;28;20476;-74
2022/06/25 11:58:26;;;;;;;2.13;1.93;;;;;;;;;;5070617;28;21014;-75
2022/06/25 12:00:55;;;;;;;2.60;1.53;;;;;;;;;;5070538;28;20983;-74
2022/06/25 12:03:24;;;;;;;7.93;2.10;;;;;;;;;;5069323;28;20933;-75
2022/06/25 12:05:51;;;;;;;2.90;2.10;;;;;;;;;;5064067;28;20876;-75
2022/06/25 12:08:20;;;;;;;1.70;1.43;;;;;;;;;;5067889;28;20444;-75
2022/06/25 12:10:48;;;;;;;1.20;1.10;;;;;;;;;;5073005;28;20468;-74
2022/06/25 12:13:15;;;;;;;1.47;1.30;;;;;;;;;;5073062;28;20886;-75
2022/06/25 12:15:42;;;;;;;2.70;1.40;;;;;;;;;;5073567;28;20529;-75
2022/06/25 12:18:09;;;;;;;1.27;1.27;;;;;;;;;;5073490;28;20501;-75
2022/06/25 12:20:36;;;;;;;1.77;1.67;;;;;;;;;;5072681;28;20464;-75
2022/06/25 12:23:04;;;;;;;1.80;1.70;;;;;;;;;;5073037;28;20498;-74
2022/06/25 12:25:33;;;;;;;1.70;1.23;;;;;;;;;;5073318;28;20462;-74
2022/06/25 12:28:01;;;;;;;2.73;2.00;;;;;;;;;;5073493;28;20942;-74
2022/06/25 12:30:29;;;;;;;1.60;1.50;;;;;;;;;;5073290;28;20464;-75
2022/06/25 12:32:59;;;;;;;1.50;1.40;;;;;;;;;;5073052;28;20855;-74
2022/06/25 12:35:27;;;;;;;1.53;1.43;;;;;;;;;;5073839;28;20475;-74
2022/06/25 12:38:01;;;;;;;2.17;1.60;;;;;;;;;;5075279;28;20476;-75
2022/06/25 12:40:28;;;;;;;1.77;1.60;;;;;;;;;;5073510;28;21036;-74
2022/06/25 12:42:57;;;;;;;1.30;1.30;;;;;;;;;;5072725;28;20502;-74
2022/06/25 12:45:24;;;;;;;1.73;1.63;;;;;;;;;;5072889;28;20444;-75
2022/06/25 12:47:52;;;;;;;3.53;1.50;;;;;;;;;;5072747;28;20437;-74
2022/06/25 12:50:23;;;;;;;1.73;1.63;;;;;;;;;;5072868;28;20444;-74
2022/06/25 12:52:50;;;;;;;1.67;1.30;;;;;;;;;;5073063;28;20535;-75
2022/06/25 12:55:20;;;;;;;1.13;1.10;;;;;;;;;;5073532;28;20457;-74
2022/06/25 12:57:48;;;;;;;1.80;1.00;;;;;;;;;;5075233;28;20503;-76
2022/06/25 13:00:20;;;;;;;1.37;1.27;;;;;;;;;;5068720;28;20456;-75
2022/06/25 13:02:47;;;;;;;1.70;1.27;;;;;;;;;;5061525;28;20436;-76
2022/06/25 13:05:14;;;;;;;4.63;1.20;;;;;;;;;;5075740;28;20444;-76
2022/06/25 13:07:41;;;;;;;1.40;1.30;;;;;;;;;;5076717;28;20477;-75
2022/06/25 13:10:09;;;;;;;1.40;1.30;;;;;;;;;;5053653;28;20520;-76
2022/06/25 13:12:36;;;;;;;1.40;1.00;;;;;;;;;;5053128;28;20433;-76
2022/06/25 13:15:03;;;;;;;2.07;1.30;;;;;;;;;;5052857;28;20472;-76
2022/06/25 13:17:31;;;;;;;2.30;1.20;;;;;;;;;;5053001;28;20519;-76
2022/06/25 13:19:58;;;;;;;2.50;1.47;;;;;;;;;;5052313;28;20449;-76
2022/06/25 13:22:25;;;;;;;1.27;1.10;;;;;;;;;;5056542;28;20468;-76
2022/06/25 13:24:52;;;;;;;1.60;1.40;;;;;;;;;;5073073;28;20997;-76
2022/06/25 13:27:19;;;;;;;1.47;1.37;;;;;;;;;;5067369;28;20498;-77
2022/06/25 13:29:46;;;;;;;1.23;1.13;;;;;;;;;;5073676;28;20468;-76
2022/06/25 13:32:16;;;;;;;1.90;1.20;;;;;;;;;;5072814;28;20847;-76
2022/06/25 13:34:45;;;;;;;1.40;1.30;;;;;;;;;;5073333;28;20437;-77
2022/06/25 13:37:12;;;;;;;1.20;1.10;;;;;;;;;;5072817;28;20995;-76
2022/06/25 13:39:39;;;;;;;1.20;1.20;;;;;;;;;;5073204;28;20494;-76
2022/06/25 13:42:06;;;;;;;1.30;1.20;;;;;;;;;;5072864;28;20920;-76
2022/06/25 13:44:35;;;;;;;3.50;1.50;;;;;;;;;;5073112;28;20437;-77
2022/06/25 13:47:03;;;;;;;2.93;1.00;;;;;;;;;;5074159;28;20519;-76
2022/06/25 13:49:30;;;;;;;1.20;1.20;;;;;;;;;;5073400;28;20441;-77
2022/06/25 13:52:00;;;;;;;2.63;1.20;;;;;;;;;;5073214;28;20469;-76
2022/06/25 13:54:27;;;;;;;1.20;1.20;;;;;;;;;;5072885;28;20456;-76
2022/06/25 13:56:54;;;;;;;1.37;1.27;;;;;;;;;;5072635;28;20881;-76
2022/06/25 13:59:21;;;;;;;1.83;1.47;;;;;;;;;;5073036;28;20432;-76
2022/06/25 14:01:48;;;;;;;1.20;1.10;;;;;;;;;;5072862;28;20460;-77
2022/06/25 14:04:15;;;;;;;1.30;1.30;;;;;;;;;;5072387;28;20449;-77
2022/06/25 14:06:43;;;;;;;2.27;1.40;;;;;;;;;;5072877;28;20437;-76
2022/06/25 14:09:12;;;;;;;1.43;1.20;;;;;;;;;;5060403;28;20809;-75
2022/06/25 14:11:39;;;;;;;1.77;1.07;;;;;;;;;;5052579;28;20519;-75
2022/06/25 14:14:06;;;;;;;1.00;1.00;;;;;;;;;;5052466;28;20793;-77
2022/06/25 14:16:33;;;;;;;1.10;1.00;;;;;;;;;;5052548;28;20835;-77
2022/06/25 14:19:02;;;;;;;1.13;0.90;;;;;;;;;;5052495;28;20445;-77
2022/06/25 14:21:29;;;;;;;0.90;0.90;;;;;;;;;;5052790;28;20471;-77
2022/06/25 14:23:56;;;;;;;0.90;0.90;;;;;;;;;;5052618;28;20442;-76
2022/06/25 14:26:24;;;;;;;1.53;1.00;;;;;;;;;;5052852;28;20855;-77
2022/06/25 14:28:51;;;;;;;1.10;1.10;;;;;;;;;;5052600;28;20522;-77
2022/06/25 14:31:18;;;;;;;1.67;1.57;;;;;;;;;;5052079;28;20880;-77
2022/06/25 14:33:45;;;;;;;1.70;1.60;;;;;;;;;;5052199;28;20491;-77
2022/06/25 14:44:24;;;;;;;2.90;1.50;;;;;;;;;;5051806;28;20401;-76
2022/06/25 14:46:52;;;;;;;1.20;1.20;;;;;;;;;;5052053;28;20457;-76
2022/06/25 14:49:19;;;;;;;1.17;1.07;;;;;;;;;;5051760;28;20448;-77
2022/06/25 14:51:46;;;;;;;1.17;0.97;;;;;;;;;;5052552;28;20511;-77
2022/06/25 14:54:14;;;;;;;1.10;1.10;;;;;;;;;;5051552;28;20804;-76
2022/06/25 14:56:42;;;;;;;1.40;1.40;;;;;;;;;;5052029;28;20476;-77
2022/06/25 14:59:09;;;;;;;1.27;1.17;;;;;;;;;;5052041;28;20801;-76
2022/06/25 15:01:36;;;;;;;1.30;1.07;;;;;;;;;;5051938;28;20469;-77
2022/06/25 15:04:03;;;;;;;1.50;1.40;;;;;;;;;;5051449;28;20837;-76
2022/06/25 15:06:30;;;;;;;1.30;1.30;;;;;;;;;;5051628;28;20487;-77
2022/06/25 15:08:57;;;;;;;1.27;1.17;;;;;;;;;;5051449;28;20498;-76
2022/06/25 15:11:25;;;;;;;1.67;1.30;;;;;;;;;;5051417;28;20470;-77
2022/06/25 15:13:53;;;;;;;1.20;1.20;;;;;;;;;;5051739;28;20528;-77
2022/06/25 15:16:20;;;;;;;1.50;1.40;;;;;;;;;;5051909;28;20507;-77
2022/06/25 15:18:47;;;;;;;1.40;1.30;;;;;;;;;;5051427;28;20508;-77
2022/06/25 15:21:15;;;;;;;1.43;1.33;;;;;;;;;;5051751;28;20461;-77